sensor_id;sensor_type;location;lat;lon;timestamp;pressure;altitude;pressure_sealevel;temperature;humidity
17525;BME280;40431;52.198;9.902;2023-02-01T00:01:41;100656.28;;;4.07;100.00
17525;BME280;40431;52.198;9.902;2023-02-01T00:04:07;100656.19;;;4.10;100.00
17525;BME280;40431;52.198;9.902;2023-02-01T00:06:34;100653.50;;;4.10;100.00
17525;BME280;40431;52.198;9.902;2023-02-01T00:09:01;100653.56;;;4.09;100.00
17525;BME280;40431;52.198;9.902;2023-02-01T00:11:29;100642.88;;;4.07;100.00
17525;BME280;40431;52.198;9.902;2023-02-01T00:13:56;100634.91;;;4.04;100.00
17525;BME280;40431;52.198;9.902;2023-02-01T00:16:24;100637.59;;;4.04;100.00
17525;BME280;40431;52.198;9.902;2023-02-01T00:18:55;100636.63;;;4.07;100.00
17525;BME280;40431;52.198;9.902;2023-02-01T00:21:22;100645.69;;;4.03;100.00
17525;BME280;40431;52.198;9.902;2023-02-01T00:23:49;100634.09;;;4.02;100.00
17525;BME280;40431;52.198;9.902;2023-02-01T00:26:17;100640.94;;;4.11;100.00
17525;BME280;40431;52.198;9.902;2023-02-01T00:28:45;100629.47;;;4.07;100.00
17525;BME280;40431;52.198;9.902;2023-02-01T00:31:12;100633.94;;;4.07;100.00
17525;BME280;40431;52.198;9.902;2023-02-01T00:33:38;100634.97;;;4.03;100.00
17525;BME280;40431;52.198;9.902;2023-02-01T00:36:06;100621.78;;;3.96;100.00
17525;BME280;40431;52.198;9.902;2023-02-01T00:38:36;100625.31;;;3.97;100.00
17525;BME280;40431;52.198;9.902;2023-02-01T00:41:04;100626.06;;;4.02;100.00
17525;BME280;40431;52.198;9.902;2023-02-01T00:43:31;100631.31;;;4.05;100.00
17525;BME280;40431;52.198;9.902;2023-02-01T00:46:00;100631.53;;;3.99;100.00
17525;BME280;40431;52.198;9.902;2023-02-01T00:48:26;100635.13;;;3.98;100.00
17525;BME280;40431;52.198;9.902;2023-02-01T00:50:53;100632.50;;;3.96;100.00
17525;BME280;40431;52.198;9.902;2023-02-01T00:53:19;100626.25;;;3.96;100.00
17525;BME280;40431;52.198;9.902;2023-02-01T00:55:46;100619.09;;;3.95;100.00
17525;BME280;40431;52.198;9.902;2023-02-01T00:58:13;100620.75;;;4.00;100.00
17525;BME280;40431;52.198;9.902;2023-02-01T01:00:40;100617.28;;;3.97;100.00
17525;BME280;40431;52.198;9.902;2023-02-01T01:03:08;100606.72;;;3.91;100.00
17525;BME280;40431;52.198;9.902;2023-02-01T01:05:43;100615.63;;;3.93;100.00
17525;BME280;40431;52.198;9.902;2023-02-01T01:08:10;100617.63;;;3.86;100.00
17525;BME280;40431;52.198;9.902;2023-02-01T01:10:36;100611.34;;;3.87;100.00
17525;BME280;40431;52.198;9.902;2023-02-01T01:13:03;100605.13;;;3.85;100.00
17525;BME280;40431;52.198;9.902;2023-02-01T01:15:29;100598.16;;;3.79;100.00
17525;BME280;40431;52.198;9.902;2023-02-01T01:17:56;100599.94;;;3.80;100.00
17525;BME280;40431;52.198;9.902;2023-02-01T01:20:23;100597.31;;;3.77;100.00
17525;BME280;40431;52.198;9.902;2023-02-01T01:22:50;100606.94;;;3.84;100.00
17525;BME280;40431;52.198;9.902;2023-02-01T01:25:16;100598.16;;;3.79;100.00
17525;BME280;40431;52.198;9.902;2023-02-01T01:27:42;100608.84;;;3.81;100.00
17525;BME280;40431;52.198;9.902;2023-02-01T01:30:10;100607.97;;;3.80;100.00
17525;BME280;40431;52.198;9.902;2023-02-01T01:32:36;100594.59;;;3.79;100.00
17525;BME280;40431;52.198;9.902;2023-02-01T01:35:03;100600.06;;;3.76;100.00
17525;BME280;40431;52.198;9.902;2023-02-01T01:37:31;100593.78;;;3.77;100.00
17525;BME280;40431;52.198;9.902;2023-02-01T01:39:57;100595.63;;;3.75;100.00
17525;BME280;40431;52.198;9.902;2023-02-01T01:42:24;100587.72;;;3.70;100.00
17525;BME280;40431;52.198;9.902;2023-02-01T01:44:59;100588.53;;;3.72;100.00
17525;BME280;40431;52.198;9.902;2023-02-01T01:47:31;100589.28;;;3.77;100.00
17525;BME280;40431;52.198;9.902;2023-02-01T01:50:01;100591.03;;;3.78;100.00
17525;BME280;40431;52.198;9.902;2023-02-01T01:52:27;100587.56;;;3.75;100.00
17525;BME280;40431;52.198;9.902;2023-02-01T01:54:58;100589.38;;;3.74;100.00
17525;BME280;40431;52.198;9.902;2023-02-01T01:57:27;100592.06;;;3.74;100.00
17525;BME280;40431;52.198;9.902;2023-02-01T02:00:04;100584.88;;;3.76;100.00
17525;BME280;40431;52.198;9.902;2023-02-01T02:02:32;100583.91;;;3.77;100.00
17525;BME280;40431;52.198;9.902;2023-02-01T02:04:58;100571.41;;;3.78;100.00
17525;BME280;40431;52.198;9.902;2023-02-01T02:07:27;100569.78;;;3.72;100.00
17525;BME280;40431;52.198;9.902;2023-02-01T02:09:56;100560.91;;;3.70;100.00
17525;BME280;40431;52.198;9.902;2023-02-01T02:12:22;100560.03;;;3.70;100.00
17525;BME280;40431;52.198;9.902;2023-02-01T02:14:49;100575.97;;;3.74;100.00
17525;BME280;40431;52.198;9.902;2023-02-01T02:17:29;100573.34;;;3.73;100.00
17525;BME280;40431;52.198;9.902;2023-02-01T02:26:20;100568.97;;;3.70;100.00
17525;BME280;40431;52.198;9.902;2023-02-01T02:29:22;100559.03;;;3.72;100.00
17525;BME280;40431;52.198;9.902;2023-02-01T02:32:22;100569.59;;;3.78;100.00
17525;BME280;40431;52.198;9.902;2023-02-01T02:34:55;100558.03;;;3.76;100.00
17525;BME280;40431;52.198;9.902;2023-02-01T02:37:29;100561.47;;;3.80;100.00
17525;BME280;40431;52.198;9.902;2023-02-01T02:40:04;100556.03;;;3.83;100.00
17525;BME280;40431;52.198;9.902;2023-02-01T02:42:38;100553.31;;;3.84;100.00
17525;BME280;40431;52.198;9.902;2023-02-01T02:45:28;100552.31;;;3.87;100.00
17525;BME280;40431;52.198;9.902;2023-02-01T02:48:20;100540.63;;;3.90;100.00
17525;BME280;40431;52.198;9.902;2023-02-01T02:50:53;100528.06;;;3.90;100.00
17525;BME280;40431;52.198;9.902;2023-02-01T02:53:48;100523.41;;;3.95;100.00
17525;BME280;40431;52.198;9.902;2023-02-01T02:56:35;100516.25;;;3.96;100.00
17525;BME280;40431;52.198;9.902;2023-02-01T02:59:21;100516.16;;;3.99;100.00
17525;BME280;40431;52.198;9.902;2023-02-01T03:02:07;100502.75;;;3.99;100.00
17525;BME280;40431;52.198;9.902;2023-02-01T03:04:52;100506.44;;;3.95;100.00
17525;BME280;40431;52.198;9.902;2023-02-01T03:07:57;100507.22;;;3.98;100.00
17525;BME280;40431;52.198;9.902;2023-02-01T03:10:34;100510.78;;;3.99;100.00
17525;BME280;40431;52.198;9.902;2023-02-01T03:13:04;100501.84;;;3.98;100.00
17525;BME280;40431;52.198;9.902;2023-02-01T03:15:35;100493.72;;;4.01;100.00
17525;BME280;40431;52.198;9.902;2023-02-01T03:18:05;100488.34;;;4.01;100.00
17525;BME280;40431;52.198;9.902;2023-02-01T03:20:33;100488.28;;;4.03;100.00
17525;BME280;40431;52.198;9.902;2023-02-01T03:23:03;100484.66;;;4.04;100.00
17525;BME280;40431;52.198;9.902;2023-02-01T03:25:32;100481.16;;;4.02;100.00
17525;BME280;40431;52.198;9.902;2023-02-01T03:28:01;100481.94;;;4.06;100.00
17525;BME280;40431;52.198;9.902;2023-02-01T03:30:31;100469.38;;;4.06;100.00
17525;BME280;40431;52.198;9.902;2023-02-01T03:33:00;100471.94;;;4.09;100.00
17525;BME280;40431;52.198;9.902;2023-02-01T03:35:32;100476.38;;;4.10;100.00
17525;BME280;40431;52.198;9.902;2023-02-01T03:38:07;100476.28;;;4.13;100.00
17525;BME280;40431;52.198;9.902;2023-02-01T03:40:39;100482.41;;;4.17;100.00
17525;BME280;40431;52.198;9.902;2023-02-01T03:43:11;100465.44;;;4.16;100.00
17525;BME280;40431;52.198;9.902;2023-02-01T03:45:43;100468.13;;;4.16;100.00
17525;BME280;40431;52.198;9.902;2023-02-01T03:48:12;100452.19;;;4.12;100.00
17525;BME280;40431;52.198;9.902;2023-02-01T03:50:43;100460.88;;;4.18;100.00
17525;BME280;40431;52.198;9.902;2023-02-01T03:53:16;100452.91;;;4.17;100.00
17525;BME280;40431;52.198;9.902;2023-02-01T03:55:43;100458.38;;;4.14;100.00
17525;BME280;40431;52.198;9.902;2023-02-01T03:58:12;100448.63;;;4.11;100.00
17525;BME280;40431;52.198;9.902;2023-02-01T04:00:40;100436.25;;;4.07;100.00
17525;BME280;40431;52.198;9.902;2023-02-01T04:03:07;100435.53;;;4.02;100.00
17525;BME280;40431;52.198;9.902;2023-02-01T04:05:34;100440.84;;;4.04;100.00
17525;BME280;40431;52.198;9.902;2023-02-01T04:08:00;100435.44;;;4.05;100.00
17525;BME280;40431;52.198;9.902;2023-02-01T04:10:28;100426.72;;;3.98;100.00
17525;BME280;40431;52.198;9.902;2023-02-01T04:12:54;100427.81;;;3.93;100.00
17525;BME280;40431;52.198;9.902;2023-02-01T04:15:21;100423.38;;;3.92;100.00
17525;BME280;40431;52.198;9.902;2023-02-01T04:17:47;100416.31;;;3.89;100.00
17525;BME280;40431;52.198;9.902;2023-02-01T04:20:13;100420.69;;;3.92;100.00
17525;BME280;40431;52.198;9.902;2023-02-01T04:22:40;100428.69;;;3.93;100.00
17525;BME280;40431;52.198;9.902;2023-02-01T04:25:07;100415.22;;;3.95;100.00
17525;BME280;40431;52.198;9.902;2023-02-01T04:27:35;100420.50;;;3.98;100.00
17525;BME280;40431;52.198;9.902;2023-02-01T04:30:02;100413.25;;;4.00;100.00
17525;BME280;40431;52.198;9.902;2023-02-01T04:32:29;100411.41;;;4.02;100.00
17525;BME280;40431;52.198;9.902;2023-02-01T04:34:55;100410.41;;;4.05;100.00
17525;BME280;40431;52.198;9.902;2023-02-01T04:37:22;100405.91;;;4.05;100.00
17525;BME280;40431;52.198;9.902;2023-02-01T04:39:48;100404.94;;;4.08;100.00
17525;BME280;40431;52.198;9.902;2023-02-01T04:42:14;100397.59;;;4.13;100.00
17525;BME280;40431;52.198;9.902;2023-02-01T04:44:42;100389.38;;;4.17;100.00
17525;BME280;40431;52.198;9.902;2023-02-01T04:47:08;100387.63;;;4.16;100.00
17525;BME280;40431;52.198;9.902;2023-02-01T04:49:35;100389.31;;;4.19;100.00
17525;BME280;40431;52.198;9.902;2023-02-01T04:52:02;100377.53;;;4.23;100.00
17525;BME280;40431;52.198;9.902;2023-02-01T04:54:28;100383.59;;;4.28;100.00
17525;BME280;40431;52.198;9.902;2023-02-01T04:56:55;100373.84;;;4.26;100.00
17525;BME280;40431;52.198;9.902;2023-02-01T04:59:21;100366.66;;;4.26;100.00
17525;BME280;40431;52.198;9.902;2023-02-01T05:01:49;100376.53;;;4.26;100.00
17525;BME280;40431;52.198;9.902;2023-02-01T05:04:15;100361.44;;;4.23;100.00
17525;BME280;40431;52.198;9.902;2023-02-01T05:06:43;100348.94;;;4.22;100.00
17525;BME280;40431;52.198;9.902;2023-02-01T05:09:10;100353.44;;;4.22;100.00
17525;BME280;40431;52.198;9.902;2023-02-01T05:11:37;100358.81;;;4.22;100.00
17525;BME280;40431;52.198;9.902;2023-02-01T05:14:21;100359.03;;;4.15;100.00
17525;BME280;40431;52.198;9.902;2023-02-01T05:16:48;100359.03;;;4.15;100.00
17525;BME280;40431;52.198;9.902;2023-02-01T05:19:15;100355.50;;;4.13;100.00
17525;BME280;40431;52.198;9.902;2023-02-01T05:21:41;100351.91;;;4.14;100.00
17525;BME280;40431;52.198;9.902;2023-02-01T05:24:08;100360.00;;;4.13;100.00
17525;BME280;40431;52.198;9.902;2023-02-01T05:26:40;100347.53;;;4.12;100.00
17525;BME280;40431;52.198;9.902;2023-02-01T05:29:08;100347.81;;;4.04;100.00
17525;BME280;40431;52.198;9.902;2023-02-01T05:31:35;100333.47;;;4.05;100.00
17525;BME280;40431;52.198;9.902;2023-02-01T05:34:03;100334.31;;;4.07;100.00
17525;BME280;40431;52.198;9.902;2023-02-01T05:36:30;100340.47;;;4.09;100.00
17525;BME280;40431;52.198;9.902;2023-02-01T05:38:56;100336.16;;;4.05;100.00
17525;BME280;40431;52.198;9.902;2023-02-01T05:41:23;100342.22;;;4.10;100.00
17525;BME280;40431;52.198;9.902;2023-02-01T05:43:50;100350.22;;;4.12;100.00
17525;BME280;40431;52.198;9.902;2023-02-01T05:46:16;100342.09;;;4.13;100.00
17525;BME280;40431;52.198;9.902;2023-02-01T05:48:43;100342.16;;;4.12;100.00
17525;BME280;40431;52.198;9.902;2023-02-01T05:51:10;100350.41;;;4.07;100.00
17525;BME280;40431;52.198;9.902;2023-02-01T05:53:37;100341.28;;;4.11;100.00
17525;BME280;40431;52.198;9.902;2023-02-01T05:56:04;100342.94;;;4.15;100.00
17525;BME280;40431;52.198;9.902;2023-02-01T05:58:31;100340.25;;;4.15;100.00
17525;BME280;40431;52.198;9.902;2023-02-01T06:00:59;100337.56;;;4.15;100.00
17525;BME280;40431;52.198;9.902;2023-02-01T06:03:25;100331.19;;;4.18;100.00
17525;BME280;40431;52.198;9.902;2023-02-01T06:05:51;100337.34;;;4.22;100.00
17525;BME280;40431;52.198;9.902;2023-02-01T06:08:19;100339.97;;;4.23;100.00
17525;BME280;40431;52.198;9.902;2023-02-01T06:10:46;100331.84;;;4.25;100.00
17525;BME280;40431;52.198;9.902;2023-02-01T06:13:12;100337.09;;;4.28;100.00
17525;BME280;40431;52.198;9.902;2023-02-01T06:15:38;100333.47;;;4.29;100.00
17525;BME280;40431;52.198;9.902;2023-02-01T06:18:07;100317.59;;;4.23;100.00
17525;BME280;40431;52.198;9.902;2023-02-01T06:20:34;100320.41;;;4.20;100.00
17525;BME280;40431;52.198;9.902;2023-02-01T06:23:00;100306.00;;;4.22;100.00
17525;BME280;40431;52.198;9.902;2023-02-01T06:25:28;100322.22;;;4.19;100.00
17525;BME280;40431;52.198;9.902;2023-02-01T06:27:54;100330.34;;;4.17;100.00
17525;BME280;40431;52.198;9.902;2023-02-01T06:30:21;100319.59;;;4.17;100.00
17525;BME280;40431;52.198;9.902;2023-02-01T06:32:50;100315.25;;;4.13;100.00
17525;BME280;40431;52.198;9.902;2023-02-01T06:35:18;100316.31;;;4.09;100.00
17525;BME280;40431;52.198;9.902;2023-02-01T06:37:45;100313.53;;;4.12;100.00
17525;BME280;40431;52.198;9.902;2023-02-01T06:40:11;100317.84;;;4.16;100.00
17525;BME280;40431;52.198;9.902;2023-02-01T06:42:39;100321.31;;;4.18;100.00
17525;BME280;40431;52.198;9.902;2023-02-01T06:45:07;100319.84;;;4.11;100.00
17525;BME280;40431;52.198;9.902;2023-02-01T06:47:33;100335.22;;;4.06;100.00
17525;BME280;40431;52.198;9.902;2023-02-01T06:50:00;100334.50;;;4.01;100.00
17525;BME280;40431;52.198;9.902;2023-02-01T06:52:26;100336.41;;;3.99;100.00
17525;BME280;40431;52.198;9.902;2023-02-01T06:54:52;100345.59;;;3.92;100.00
17525;BME280;40431;52.198;9.902;2023-02-01T06:57:19;100352.72;;;3.93;100.00
17525;BME280;40431;52.198;9.902;2023-02-01T06:59:46;100351.88;;;3.91;100.00
17525;BME280;40431;52.198;9.902;2023-02-01T07:02:13;100358.84;;;3.96;100.00
17525;BME280;40431;52.198;9.902;2023-02-01T07:04:39;100358.06;;;3.93;100.00
17525;BME280;40431;52.198;9.902;2023-02-01T07:07:05;100367.94;;;3.92;100.00
17525;BME280;40431;52.198;9.902;2023-02-01T07:09:32;100365.09;;;3.97;100.00
17525;BME280;40431;52.198;9.902;2023-02-01T07:11:58;100368.94;;;3.90;100.00
17525;BME280;40431;52.198;9.902;2023-02-01T07:14:24;100367.00;;;3.93;100.00
17525;BME280;40431;52.198;9.902;2023-02-01T07:16:52;100381.34;;;3.92;100.00
17525;BME280;40431;52.198;9.902;2023-02-01T07:19:18;100381.31;;;3.94;100.00
17525;BME280;40431;52.198;9.902;2023-02-01T07:21:45;100383.25;;;3.89;100.00
17525;BME280;40431;52.198;9.902;2023-02-01T07:24:11;100383.31;;;3.87;100.00
17525;BME280;40431;52.198;9.902;2023-02-01T07:26:39;100374.22;;;3.91;100.00
17525;BME280;40431;52.198;9.902;2023-02-01T07:29:06;100386.66;;;3.94;100.00
17525;BME280;40431;52.198;9.902;2023-02-01T07:31:32;100377.66;;;3.95;100.00
17525;BME280;40431;52.198;9.902;2023-02-01T07:34:00;100383.84;;;3.97;100.00
17525;BME280;40431;52.198;9.902;2023-02-01T07:36:27;100366.94;;;3.95;100.00
17525;BME280;40431;52.198;9.902;2023-02-01T07:38:54;100362.47;;;3.95;100.00
17525;BME280;40431;52.198;9.902;2023-02-01T07:41:20;100364.16;;;3.98;100.00
17525;BME280;40431;52.198;9.902;2023-02-01T07:43:47;100368.34;;;4.05;100.00
17525;BME280;40431;52.198;9.902;2023-02-01T07:46:13;100377.97;;;4.11;100.00
17525;BME280;40431;52.198;9.902;2023-02-01T07:48:40;100365.03;;;4.22;100.00
17525;BME280;40431;52.198;9.902;2023-02-01T07:51:11;100384.66;;;4.24;100.00
17525;BME280;40431;52.198;9.902;2023-02-01T07:53:38;100373.94;;;4.24;100.00
17525;BME280;40431;52.198;9.902;2023-02-01T07:56:10;100375.56;;;4.28;100.00
17525;BME280;40431;52.198;9.902;2023-02-01T07:58:37;100386.81;;;4.38;100.00
17525;BME280;40431;52.198;9.902;2023-02-01T08:01:04;100373.25;;;4.41;100.00
17525;BME280;40431;52.198;9.902;2023-02-01T08:03:45;100388.44;;;4.42;100.00
17525;BME280;40431;52.198;9.902;2023-02-01T08:06:12;100392.88;;;4.43;100.00
17525;BME280;40431;52.198;9.902;2023-02-01T08:08:39;100378.47;;;4.46;100.00
17525;BME280;40431;52.198;9.902;2023-02-01T08:11:06;100385.63;;;4.45;100.00
17525;BME280;40431;52.198;9.902;2023-02-01T08:13:33;100389.97;;;4.49;100.00
17525;BME280;40431;52.198;9.902;2023-02-01T08:16:00;100405.09;;;4.52;100.00
17525;BME280;40431;52.198;9.902;2023-02-01T08:18:27;100408.56;;;4.54;100.00
17525;BME280;40431;52.198;9.902;2023-02-01T08:20:53;100398.69;;;4.55;100.00
17525;BME280;40431;52.198;9.902;2023-02-01T08:23:21;100397.69;;;4.57;100.00
17525;BME280;40431;52.198;9.902;2023-02-01T08:25:47;100403.03;;;4.59;100.00
17525;BME280;40431;52.198;9.902;2023-02-01T08:28:14;100403.91;;;4.59;100.00
17525;BME280;40431;52.198;9.902;2023-02-01T08:30:41;100410.19;;;4.58;100.00
17525;BME280;40431;52.198;9.902;2023-02-01T08:33:08;100408.28;;;4.62;100.00
17525;BME280;40431;52.198;9.902;2023-02-01T08:35:36;100405.47;;;4.65;100.00
17525;BME280;40431;52.198;9.902;2023-02-01T08:38:03;100417.97;;;4.66;100.00
17525;BME280;40431;52.198;9.902;2023-02-01T08:40:31;100421.34;;;4.71;100.00
17525;BME280;40431;52.198;9.902;2023-02-01T08:42:57;100410.41;;;4.76;100.00
17525;BME280;40431;52.198;9.902;2023-02-01T08:45:27;100422.84;;;4.78;100.00
17525;BME280;40431;52.198;9.902;2023-02-01T08:47:55;100419.31;;;4.78;100.00
17525;BME280;40431;52.198;9.902;2023-02-01T08:50:22;100406.63;;;4.81;100.00
17525;BME280;40431;52.198;9.902;2023-02-01T08:52:48;100409.13;;;4.86;100.00
17525;BME280;40431;52.198;9.902;2023-02-01T08:55:15;100413.38;;;4.92;100.00
17525;BME280;40431;52.198;9.902;2023-02-01T08:57:43;100411.50;;;4.94;100.00
17525;BME280;40431;52.198;9.902;2023-02-01T09:00:12;100408.69;;;4.97;100.00
17525;BME280;40431;52.198;9.902;2023-02-01T09:02:39;100400.69;;;4.95;100.00
17525;BME280;40431;52.198;9.902;2023-02-01T09:05:06;100400.56;;;4.98;100.00
17525;BME280;40431;52.198;9.902;2023-02-01T09:07:34;100419.34;;;5.00;100.00
17525;BME280;40431;52.198;9.902;2023-02-01T09:10:00;100411.06;;;5.05;100.00
17525;BME280;40431;52.198;9.902;2023-02-01T09:12:27;100415.44;;;5.07;100.00
17525;BME280;40431;52.198;9.902;2023-02-01T09:14:55;100409.94;;;5.10;100.00
17525;BME280;40431;52.198;9.902;2023-02-01T09:17:24;100415.00;;;5.18;100.00
17525;BME280;40431;52.198;9.902;2023-02-01T09:19:50;100414.63;;;5.27;100.00
17525;BME280;40431;52.198;9.902;2023-02-01T09:22:17;100401.06;;;5.30;100.00
17525;BME280;40431;52.198;9.902;2023-02-01T09:24:44;100406.38;;;5.32;100.00
17525;BME280;40431;52.198;9.902;2023-02-01T09:27:10;100418.78;;;5.36;100.00
17525;BME280;40431;52.198;9.902;2023-02-01T09:29:36;100408.00;;;5.36;100.00
17525;BME280;40431;52.198;9.902;2023-02-01T09:32:05;100410.00;;;5.31;100.00
17525;BME280;40431;52.198;9.902;2023-02-01T09:34:31;100412.00;;;5.26;100.00
17525;BME280;40431;52.198;9.902;2023-02-01T09:36:58;100399.50;;;5.25;100.00
17525;BME280;40431;52.198;9.902;2023-02-01T09:39:24;100406.72;;;5.24;100.00
17525;BME280;40431;52.198;9.902;2023-02-01T09:41:57;100412.16;;;5.23;100.00
17525;BME280;40431;52.198;9.902;2023-02-01T09:44:38;100413.88;;;5.24;100.00
17525;BME280;40431;52.198;9.902;2023-02-01T09:47:13;100413.06;;;5.22;100.00
17525;BME280;40431;52.198;9.902;2023-02-01T09:49:48;100423.69;;;5.25;100.00
17525;BME280;40431;52.198;9.902;2023-02-01T09:52:27;100416.47;;;5.27;100.00
17525;BME280;40431;52.198;9.902;2023-02-01T09:54:58;100408.25;;;5.30;100.00
17525;BME280;40431;52.198;9.902;2023-02-01T09:57:39;100411.69;;;5.33;100.00
17525;BME280;40431;52.198;9.902;2023-02-01T10:00:15;100409.88;;;5.34;100.00
17525;BME280;40431;52.198;9.902;2023-02-01T10:02:44;100407.88;;;5.39;100.00
17525;BME280;40431;52.198;9.902;2023-02-01T10:05:14;100408.56;;;5.44;100.00
17525;BME280;40431;52.198;9.902;2023-02-01T10:07:44;100419.09;;;5.49;100.00
17525;BME280;40431;52.198;9.902;2023-02-01T10:10:16;100413.72;;;5.49;100.00
17525;BME280;40431;52.198;9.902;2023-02-01T10:13:08;100398.47;;;5.49;100.00
17525;BME280;40431;52.198;9.902;2023-02-01T10:15:44;100407.34;;;5.51;100.00
17525;BME280;40431;52.198;9.902;2023-02-01T10:18:27;100408.97;;;5.56;100.00
17525;BME280;40431;52.198;9.902;2023-02-01T10:21:01;100400.84;;;5.57;100.00
17525;BME280;40431;52.198;9.902;2023-02-01T10:23:50;100402.31;;;5.64;100.00
17525;BME280;40431;52.198;9.902;2023-02-01T10:26:22;100394.06;;;5.69;100.00
17525;BME280;40431;52.198;9.902;2023-02-01T10:28:51;100401.09;;;5.72;100.00
17525;BME280;40431;52.198;9.902;2023-02-01T10:31:18;100390.31;;;5.73;100.00
17525;BME280;40431;52.198;9.902;2023-02-01T10:33:49;100393.78;;;5.75;100.00
17525;BME280;40431;52.198;9.902;2023-02-01T10:36:21;100389.06;;;5.80;100.00
17525;BME280;40431;52.198;9.902;2023-02-01T10:38:49;100391.69;;;5.82;100.00
17525;BME280;40431;52.198;9.902;2023-02-01T10:41:17;100385.31;;;5.84;100.00
17525;BME280;40431;52.198;9.902;2023-02-01T10:43:47;100377.22;;;5.84;100.00
17525;BME280;40431;52.198;9.902;2023-02-01T10:46:14;100387.84;;;5.88;100.00
17525;BME280;40431;52.198;9.902;2023-02-01T10:48:41;100380.75;;;5.87;100.00
17525;BME280;40431;52.198;9.902;2023-02-01T10:51:15;100389.53;;;5.90;100.00
17525;BME280;40431;52.198;9.902;2023-02-01T10:53:45;100380.41;;;5.94;100.00
17525;BME280;40431;52.198;9.902;2023-02-01T10:56:22;100380.44;;;5.93;100.00
17525;BME280;40431;52.198;9.902;2023-02-01T10:58:49;100382.34;;;5.91;100.00
17525;BME280;40431;52.198;9.902;2023-02-01T11:01:19;100371.72;;;5.88;100.00
17525;BME280;40431;52.198;9.902;2023-02-01T11:03:52;100368.97;;;5.89;100.00
17525;BME280;40431;52.198;9.902;2023-02-01T11:06:26;100368.97;;;5.89;100.00
17525;BME280;40431;52.198;9.902;2023-02-01T11:08:54;100369.00;;;5.88;100.00
17525;BME280;40431;52.198;9.902;2023-02-01T11:11:22;100370.69;;;5.90;100.00
17525;BME280;40431;52.198;9.902;2023-02-01T11:13:55;100362.44;;;5.95;100.00
17525;BME280;40431;52.198;9.902;2023-02-01T11:16:29;100354.44;;;5.93;100.00
17525;BME280;40431;52.198;9.902;2023-02-01T11:18:58;100354.34;;;5.95;100.00
17525;BME280;40431;52.198;9.902;2023-02-01T11:21:26;100333.16;;;5.87;99.89
17525;BME280;40431;52.198;9.902;2023-02-01T11:23:52;100350.19;;;5.88;100.00
17525;BME280;40431;52.198;9.902;2023-02-01T11:26:23;100342.94;;;5.90;99.68
17525;BME280;40431;52.198;9.902;2023-02-01T11:28:53;100343.94;;;5.87;100.00
17525;BME280;40431;52.198;9.902;2023-02-01T11:31:20;100346.78;;;5.84;100.00
17525;BME280;40431;52.198;9.902;2023-02-01T11:33:50;100346.84;;;5.82;100.00
17525;BME280;40431;52.198;9.902;2023-02-01T11:36:22;100338.78;;;5.82;100.00
17525;BME280;40431;52.198;9.902;2023-02-01T11:38:54;100334.19;;;5.84;100.00
17525;BME280;40431;52.198;9.902;2023-02-01T11:41:23;100334.19;;;5.84;100.00
17525;BME280;40431;52.198;9.902;2023-02-01T11:43:52;100316.44;;;5.80;100.00
17525;BME280;40431;52.198;9.902;2023-02-01T11:46:19;100307.44;;;5.81;100.00
17525;BME280;40431;52.198;9.902;2023-02-01T11:48:50;100302.16;;;5.78;100.00
17525;BME280;40431;52.198;9.902;2023-02-01T11:51:27;100298.53;;;5.79;100.00
17525;BME280;40431;52.198;9.902;2023-02-01T11:54:07;100293.06;;;5.81;100.00
17525;BME280;40431;52.198;9.902;2023-02-01T11:56:44;100286.03;;;5.78;100.00
17525;BME280;40431;52.198;9.902;2023-02-01T11:59:25;100277.81;;;5.81;100.00
17525;BME280;40431;52.198;9.902;2023-02-01T12:02:08;100269.00;;;5.78;100.00
17525;BME280;40431;52.198;9.902;2023-02-01T12:07:55;100250.09;;;5.79;100.00
17525;BME280;40431;52.198;9.902;2023-02-01T12:10:33;100246.63;;;5.77;100.00
17525;BME280;40431;52.198;9.902;2023-02-01T12:13:13;100237.75;;;5.75;100.00
17525;BME280;40431;52.198;9.902;2023-02-01T12:15:53;100226.97;;;5.75;100.00
17525;BME280;40431;52.198;9.902;2023-02-01T12:18:39;100226.91;;;5.77;100.00
17525;BME280;40431;52.198;9.902;2023-02-01T12:21:23;100221.31;;;5.81;100.00
17525;BME280;40431;52.198;9.902;2023-02-01T12:24:05;100203.28;;;5.83;100.00
17525;BME280;40431;52.198;9.902;2023-02-01T12:26:44;100200.38;;;5.88;100.00
17525;BME280;40431;52.198;9.902;2023-02-01T12:29:20;100190.06;;;5.98;100.00
17525;BME280;40431;52.198;9.902;2023-02-01T12:32:06;100182.91;;;5.97;100.00
17525;BME280;40431;52.198;9.902;2023-02-01T12:34:46;100157.66;;;6.01;100.00
17525;BME280;40431;52.198;9.902;2023-02-01T12:37:22;100169.28;;;6.01;100.00
17525;BME280;40431;52.198;9.902;2023-02-01T12:40:00;100153.84;;;6.05;100.00
17525;BME280;40431;52.198;9.902;2023-02-01T12:42:33;100155.75;;;6.03;100.00
17525;BME280;40431;52.198;9.902;2023-02-01T12:45:11;100152.69;;;5.92;100.00
17525;BME280;40431;52.198;9.902;2023-02-01T12:47:43;100153.13;;;5.82;100.00
17525;BME280;40431;52.198;9.902;2023-02-01T12:50:15;100146.59;;;5.69;100.00
17525;BME280;40431;52.198;9.902;2023-02-01T12:52:49;100163.28;;;5.57;100.00
17525;BME280;40431;52.198;9.902;2023-02-01T12:55:20;100151.78;;;5.53;100.00
17525;BME280;40431;52.198;9.902;2023-02-01T12:57:52;100149.59;;;5.42;100.00
17525;BME280;40431;52.198;9.902;2023-02-01T13:00:27;100135.22;;;5.43;100.00
17525;BME280;40431;52.198;9.902;2023-02-01T13:03:00;100158.63;;;5.41;100.00
17525;BME280;40431;52.198;9.902;2023-02-01T13:05:35;100148.00;;;5.38;100.00
17525;BME280;40431;52.198;9.902;2023-02-01T13:08:09;100148.16;;;5.35;100.00
17525;BME280;40431;52.198;9.902;2023-02-01T13:10:38;100143.50;;;5.39;100.00
17525;BME280;40431;52.198;9.902;2023-02-01T13:13:16;100131.78;;;5.40;100.00
17525;BME280;40431;52.198;9.902;2023-02-01T13:15:47;100137.25;;;5.38;100.00